sensor_id;sensor_type;location;lat;lon;timestamp;temperature;humidity
20845;DHT22;10583;49.084;8.646;2024-01-10T00:02:02;-5.30;99.90
20845;DHT22;10583;49.084;8.646;2024-01-10T00:04:29;-5.30;99.90
20845;DHT22;10583;49.084;8.646;2024-01-10T00:06:56;-5.20;99.90
20845;DHT22;10583;49.084;8.646;2024-01-10T00:09:22;-5.20;99.90
20845;DHT22;10583;49.084;8.646;2024-01-10T00:11:49;-5.10;99.90
20845;DHT22;10583;49.084;8.646;2024-01-10T00:14:16;-5.10;99.90
20845;DHT22;10583;49.084;8.646;2024-01-10T00:16:42;-5.00;99.90
20845;DHT22;10583;49.084;8.646;2024-01-10T00:19:10;-5.00;99.90
20845;DHT22;10583;49.084;8.646;2024-01-10T00:21:37;-5.00;99.90
20845;DHT22;10583;49.084;8.646;2024-01-10T00:24:04;-4.90;99.90
20845;DHT22;10583;49.084;8.646;2024-01-10T00:26:31;-4.80;99.90
20845;DHT22;10583;49.084;8.646;2024-01-10T00:28:58;-4.60;99.90
20845;DHT22;10583;49.084;8.646;2024-01-10T00:31:24;-4.50;99.90
20845;DHT22;10583;49.084;8.646;2024-01-10T00:33:51;-4.40;99.90
20845;DHT22;10583;49.084;8.646;2024-01-10T00:36:19;-4.30;99.90
20845;DHT22;10583;49.084;8.646;2024-01-10T00:38:46;-4.20;99.90
20845;DHT22;10583;49.084;8.646;2024-01-10T00:41:13;-4.10;99.90
20845;DHT22;10583;49.084;8.646;2024-01-10T00:43:39;-4.10;99.90
20845;DHT22;10583;49.084;8.646;2024-01-10T00:46:06;-4.00;99.90
20845;DHT22;10583;49.084;8.646;2024-01-10T00:48:33;-4.00;99.90
20845;DHT22;10583;49.084;8.646;2024-01-10T00:50:59;-3.90;99.90
20845;DHT22;10583;49.084;8.646;2024-01-10T00:53:27;-3.80;99.90
20845;DHT22;10583;49.084;8.646;2024-01-10T00:55:54;-3.80;99.90
20845;DHT22;10583;49.084;8.646;2024-01-10T00:58:21;-3.80;99.90
20845;DHT22;10583;49.084;8.646;2024-01-10T01:00:47;-3.80;99.90
20845;DHT22;10583;49.084;8.646;2024-01-10T01:03:14;-3.80;99.90
20845;DHT22;10583;49.084;8.646;2024-01-10T01:05:41;-3.80;99.90
20845;DHT22;10583;49.084;8.646;2024-01-10T01:08:07;-3.80;99.90
20845;DHT22;10583;49.084;8.646;2024-01-10T01:10:35;-3.80;99.90
20845;DHT22;10583;49.084;8.646;2024-01-10T01:13:02;-3.80;99.90
20845;DHT22;10583;49.084;8.646;2024-01-10T01:15:29;-3.80;99.90
20845;DHT22;10583;49.084;8.646;2024-01-10T01:17:56;-3.80;99.90
20845;DHT22;10583;49.084;8.646;2024-01-10T01:20:22;-3.80;99.90
20845;DHT22;10583;49.084;8.646;2024-01-10T01:22:49;-3.80;99.90
20845;DHT22;10583;49.084;8.646;2024-01-10T01:25:16;-3.80;99.90
20845;DHT22;10583;49.084;8.646;2024-01-10T01:27:44;-3.80;99.90
20845;DHT22;10583;49.084;8.646;2024-01-10T01:30:11;-3.80;99.90
20845;DHT22;10583;49.084;8.646;2024-01-10T01:32:38;-3.80;99.90
20845;DHT22;10583;49.084;8.646;2024-01-10T01:35:05;-3.80;99.90
20845;DHT22;10583;49.084;8.646;2024-01-10T01:37:32;-3.80;99.90
20845;DHT22;10583;49.084;8.646;2024-01-10T01:39:59;-3.80;99.90
20845;DHT22;10583;49.084;8.646;2024-01-10T01:42:25;-3.80;99.90
20845;DHT22;10583;49.084;8.646;2024-01-10T01:44:53;-3.80;99.90
20845;DHT22;10583;49.084;8.646;2024-01-10T01:47:20;-3.80;99.90
20845;DHT22;10583;49.084;8.646;2024-01-10T01:49:47;-3.80;99.90
20845;DHT22;10583;49.084;8.646;2024-01-10T01:52:14;-3.80;99.90
20845;DHT22;10583;49.084;8.646;2024-01-10T01:54:40;-3.70;99.90
20845;DHT22;10583;49.084;8.646;2024-01-10T01:57:07;-3.70;99.90
20845;DHT22;10583;49.084;8.646;2024-01-10T01:59:34;-3.80;99.90
20845;DHT22;10583;49.084;8.646;2024-01-10T02:02:03;-3.80;99.90
20845;DHT22;10583;49.084;8.646;2024-01-10T02:04:31;-3.80;99.90
20845;DHT22;10583;49.084;8.646;2024-01-10T02:06:57;-3.80;99.90
20845;DHT22;10583;49.084;8.646;2024-01-10T02:09:25;-3.80;99.90
20845;DHT22;10583;49.084;8.646;2024-01-10T02:11:52;-3.80;99.90
20845;DHT22;10583;49.084;8.646;2024-01-10T02:14:19;-3.80;99.90
20845;DHT22;10583;49.084;8.646;2024-01-10T02:16:46;-3.80;99.90
20845;DHT22;10583;49.084;8.646;2024-01-10T02:19:22;-3.80;99.90
20845;DHT22;10583;49.084;8.646;2024-01-10T02:21:49;-3.80;99.90
20845;DHT22;10583;49.084;8.646;2024-01-10T02:24:15;-3.80;99.90
20845;DHT22;10583;49.084;8.646;2024-01-10T02:26:43;-3.80;99.90
20845;DHT22;10583;49.084;8.646;2024-01-10T02:29:10;-3.80;99.90
20845;DHT22;10583;49.084;8.646;2024-01-10T02:31:37;-3.80;99.90
20845;DHT22;10583;49.084;8.646;2024-01-10T02:34:03;-3.80;99.90
20845;DHT22;10583;49.084;8.646;2024-01-10T02:36:30;-3.80;99.90
20845;DHT22;10583;49.084;8.646;2024-01-10T02:38:57;-3.70;99.90
20845;DHT22;10583;49.084;8.646;2024-01-10T02:41:23;-3.80;99.90
20845;DHT22;10583;49.084;8.646;2024-01-10T02:43:51;-3.80;99.90
20845;DHT22;10583;49.084;8.646;2024-01-10T02:46:18;-3.80;99.90
20845;DHT22;10583;49.084;8.646;2024-01-10T02:48:48;-3.80;99.90
20845;DHT22;10583;49.084;8.646;2024-01-10T02:51:14;-3.80;99.90
20845;DHT22;10583;49.084;8.646;2024-01-10T02:53:41;-3.80;99.90
20845;DHT22;10583;49.084;8.646;2024-01-10T02:56:08;-3.80;99.90
20845;DHT22;10583;49.084;8.646;2024-01-10T02:58:34;-3.80;99.90
20845;DHT22;10583;49.084;8.646;2024-01-10T03:01:02;-3.80;99.90
20845;DHT22;10583;49.084;8.646;2024-01-10T03:03:29;-3.80;99.90
20845;DHT22;10583;49.084;8.646;2024-01-10T03:05:56;-3.80;99.90
20845;DHT22;10583;49.084;8.646;2024-01-10T03:08:22;-3.80;99.90
20845;DHT22;10583;49.084;8.646;2024-01-10T03:10:49;-3.90;99.90
20845;DHT22;10583;49.084;8.646;2024-01-10T03:13:16;-3.80;99.90
20845;DHT22;10583;49.084;8.646;2024-01-10T03:15:43;-3.80;99.90
20845;DHT22;10583;49.084;8.646;2024-01-10T03:18:11;-3.80;99.90
20845;DHT22;10583;49.084;8.646;2024-01-10T03:20:37;-3.90;99.90
20845;DHT22;10583;49.084;8.646;2024-01-10T03:23:04;-3.90;99.90
20845;DHT22;10583;49.084;8.646;2024-01-10T03:25:30;-3.90;99.90
20845;DHT22;10583;49.084;8.646;2024-01-10T03:27:57;-3.90;99.90
20845;DHT22;10583;49.084;8.646;2024-01-10T03:30:24;-3.90;99.90
20845;DHT22;10583;49.084;8.646;2024-01-10T03:32:50;-3.90;99.90
20845;DHT22;10583;49.084;8.646;2024-01-10T03:35:18;-4.00;99.90
20845;DHT22;10583;49.084;8.646;2024-01-10T03:37:45;-4.00;99.90
20845;DHT22;10583;49.084;8.646;2024-01-10T03:40:12;-4.00;99.90
20845;DHT22;10583;49.084;8.646;2024-01-10T03:42:39;-4.00;99.90
20845;DHT22;10583;49.084;8.646;2024-01-10T03:45:06;-4.00;99.90
20845;DHT22;10583;49.084;8.646;2024-01-10T03:47:32;-4.00;99.90
20845;DHT22;10583;49.084;8.646;2024-01-10T03:49:59;-4.00;99.90
20845;DHT22;10583;49.084;8.646;2024-01-10T03:52:27;-4.00;99.90
20845;DHT22;10583;49.084;8.646;2024-01-10T03:54:54;-4.10;99.90
20845;DHT22;10583;49.084;8.646;2024-01-10T03:57:20;-4.00;99.90
20845;DHT22;10583;49.084;8.646;2024-01-10T03:59:47;-4.10;99.90
20845;DHT22;10583;49.084;8.646;2024-01-10T04:02:14;-4.00;99.90
20845;DHT22;10583;49.084;8.646;2024-01-10T04:04:40;-4.10;99.90
20845;DHT22;10583;49.084;8.646;2024-01-10T04:07:07;-4.10;99.90
20845;DHT22;10583;49.084;8.646;2024-01-10T04:09:35;-4.10;99.90
20845;DHT22;10583;49.084;8.646;2024-01-10T04:12:02;-4.10;99.90
20845;DHT22;10583;49.084;8.646;2024-01-10T04:14:29;-4.10;99.90
20845;DHT22;10583;49.084;8.646;2024-01-10T04:16:56;-4.10;99.90
20845;DHT22;10583;49.084;8.646;2024-01-10T04:19:22;-4.20;99.90
20845;DHT22;10583;49.084;8.646;2024-01-10T04:21:49;-4.20;99.90
20845;DHT22;10583;49.084;8.646;2024-01-10T04:24:16;-4.20;99.90
20845;DHT22;10583;49.084;8.646;2024-01-10T04:26:44;-4.20;99.90
20845;DHT22;10583;49.084;8.646;2024-01-10T04:29:10;-4.10;99.90
20845;DHT22;10583;49.084;8.646;2024-01-10T04:31:37;-4.10;99.90
20845;DHT22;10583;49.084;8.646;2024-01-10T04:34:04;-4.00;99.90
20845;DHT22;10583;49.084;8.646;2024-01-10T04:36:31;-4.10;99.90
20845;DHT22;10583;49.084;8.646;2024-01-10T04:38:58;-4.10;99.90
20845;DHT22;10583;49.084;8.646;2024-01-10T04:41:25;-4.10;99.90
20845;DHT22;10583;49.084;8.646;2024-01-10T04:43:53;-4.10;99.90
20845;DHT22;10583;49.084;8.646;2024-01-10T04:46:19;-4.10;99.90
20845;DHT22;10583;49.084;8.646;2024-01-10T04:48:46;-4.10;99.90
20845;DHT22;10583;49.084;8.646;2024-01-10T04:51:13;-4.10;99.90
20845;DHT22;10583;49.084;8.646;2024-01-10T04:53:40;-4.00;99.90
20845;DHT22;10583;49.084;8.646;2024-01-10T04:56:07;-4.00;99.90
20845;DHT22;10583;49.084;8.646;2024-01-10T04:58:34;-4.10;99.90
20845;DHT22;10583;49.084;8.646;2024-01-10T05:01:03;-4.10;99.90
20845;DHT22;10583;49.084;8.646;2024-01-10T05:03:31;-4.10;99.90
20845;DHT22;10583;49.084;8.646;2024-01-10T05:05:58;-4.10;99.90
20845;DHT22;10583;49.084;8.646;2024-01-10T05:08:25;-4.10;99.90
20845;DHT22;10583;49.084;8.646;2024-01-10T05:10:52;-4.00;99.90
20845;DHT22;10583;49.084;8.646;2024-01-10T05:13:19;-4.00;99.90
20845;DHT22;10583;49.084;8.646;2024-01-10T05:15:46;-4.00;99.90
20845;DHT22;10583;49.084;8.646;2024-01-10T05:18:14;-4.00;99.90
20845;DHT22;10583;49.084;8.646;2024-01-10T05:20:41;-4.00;99.90
20845;DHT22;10583;49.084;8.646;2024-01-10T05:23:08;-3.90;99.90
20845;DHT22;10583;49.084;8.646;2024-01-10T05:25:35;-3.90;99.90
20845;DHT22;10583;49.084;8.646;2024-01-10T05:28:01;-3.80;99.90
20845;DHT22;10583;49.084;8.646;2024-01-10T05:30:28;-3.70;99.90
20845;DHT22;10583;49.084;8.646;2024-01-10T05:32:55;-3.70;99.90
20845;DHT22;10583;49.084;8.646;2024-01-10T05:35:23;-3.80;99.90
20845;DHT22;10583;49.084;8.646;2024-01-10T05:37:51;-3.80;99.90
20845;DHT22;10583;49.084;8.646;2024-01-10T05:40:17;-3.80;99.90
20845;DHT22;10583;49.084;8.646;2024-01-10T05:42:45;-3.70;99.90
20845;DHT22;10583;49.084;8.646;2024-01-10T05:45:12;-3.80;99.90
20845;DHT22;10583;49.084;8.646;2024-01-10T05:47:38;-3.80;99.90
20845;DHT22;10583;49.084;8.646;2024-01-10T05:50:06;-3.90;99.90
20845;DHT22;10583;49.084;8.646;2024-01-10T05:52:34;-3.90;99.90
20845;DHT22;10583;49.084;8.646;2024-01-10T05:55:01;-3.90;99.90
20845;DHT22;10583;49.084;8.646;2024-01-10T05:57:29;-3.90;99.90
20845;DHT22;10583;49.084;8.646;2024-01-10T05:59:56;-3.90;99.90
20845;DHT22;10583;49.084;8.646;2024-01-10T06:02:22;-4.00;99.90
20845;DHT22;10583;49.084;8.646;2024-01-10T06:04:49;-4.00;99.90
20845;DHT22;10583;49.084;8.646;2024-01-10T06:07:16;-3.90;99.90
20845;DHT22;10583;49.084;8.646;2024-01-10T06:09:44;-3.90;99.90
20845;DHT22;10583;49.084;8.646;2024-01-10T06:12:11;-3.90;99.90
20845;DHT22;10583;49.084;8.646;2024-01-10T06:14:38;-3.90;99.90
20845;DHT22;10583;49.084;8.646;2024-01-10T06:17:05;-3.90;99.90
20845;DHT22;10583;49.084;8.646;2024-01-10T06:19:32;-3.90;99.90
20845;DHT22;10583;49.084;8.646;2024-01-10T06:21:59;-3.90;99.90
20845;DHT22;10583;49.084;8.646;2024-01-10T06:24:26;-3.90;99.90
20845;DHT22;10583;49.084;8.646;2024-01-10T06:26:54;-3.90;99.90
20845;DHT22;10583;49.084;8.646;2024-01-10T06:29:21;-3.90;99.90
20845;DHT22;10583;49.084;8.646;2024-01-10T06:31:47;-4.00;99.90
20845;DHT22;10583;49.084;8.646;2024-01-10T06:34:14;-4.00;99.90
20845;DHT22;10583;49.084;8.646;2024-01-10T06:36:41;-4.00;99.90
20845;DHT22;10583;49.084;8.646;2024-01-10T06:39:09;-4.00;99.90
20845;DHT22;10583;49.084;8.646;2024-01-10T06:41:38;-4.00;99.90
20845;DHT22;10583;49.084;8.646;2024-01-10T06:44:06;-4.00;99.90
20845;DHT22;10583;49.084;8.646;2024-01-10T06:46:32;-4.00;99.90
20845;DHT22;10583;49.084;8.646;2024-01-10T06:48:59;-4.10;99.90
20845;DHT22;10583;49.084;8.646;2024-01-10T06:51:26;-4.10;99.90
20845;DHT22;10583;49.084;8.646;2024-01-10T06:53:53;-4.10;99.90
20845;DHT22;10583;49.084;8.646;2024-01-10T06:56:26;-4.10;99.90
20845;DHT22;10583;49.084;8.646;2024-01-10T06:58:52;-4.20;99.90
20845;DHT22;10583;49.084;8.646;2024-01-10T07:01:21;-4.10;99.90
20845;DHT22;10583;49.084;8.646;2024-01-10T07:03:48;-4.20;99.90
20845;DHT22;10583;49.084;8.646;2024-01-10T07:06:15;-4.20;99.90
20845;DHT22;10583;49.084;8.646;2024-01-10T07:08:42;-4.10;99.90
20845;DHT22;10583;49.084;8.646;2024-01-10T07:11:09;-4.20;99.90
20845;DHT22;10583;49.084;8.646;2024-01-10T07:13:37;-4.20;99.90
20845;DHT22;10583;49.084;8.646;2024-01-10T07:16:04;-4.20;99.90
20845;DHT22;10583;49.084;8.646;2024-01-10T07:18:32;-4.20;99.90
20845;DHT22;10583;49.084;8.646;2024-01-10T07:20:59;-4.20;99.90
20845;DHT22;10583;49.084;8.646;2024-01-10T07:23:26;-4.20;99.90
20845;DHT22;10583;49.084;8.646;2024-01-10T07:25:52;-4.10;99.90
20845;DHT22;10583;49.084;8.646;2024-01-10T07:28:19;-4.10;99.90
20845;DHT22;10583;49.084;8.646;2024-01-10T07:30:47;-4.00;99.90
20845;DHT22;10583;49.084;8.646;2024-01-10T07:33:13;-4.00;99.90
20845;DHT22;10583;49.084;8.646;2024-01-10T07:35:41;-4.00;99.90
20845;DHT22;10583;49.084;8.646;2024-01-10T07:38:08;-4.00;99.90
20845;DHT22;10583;49.084;8.646;2024-01-10T07:40:35;-3.90;99.90
20845;DHT22;10583;49.084;8.646;2024-01-10T07:43:02;-3.80;99.90
20845;DHT22;10583;49.084;8.646;2024-01-10T07:45:29;-3.80;99.90
20845;DHT22;10583;49.084;8.646;2024-01-10T07:47:55;-3.80;99.90
20845;DHT22;10583;49.084;8.646;2024-01-10T07:50:22;-3.80;99.90
20845;DHT22;10583;49.084;8.646;2024-01-10T07:52:53;-3.80;99.90
20845;DHT22;10583;49.084;8.646;2024-01-10T07:55:20;-3.70;99.90
20845;DHT22;10583;49.084;8.646;2024-01-10T07:57:47;-3.70;99.90
20845;DHT22;10583;49.084;8.646;2024-01-10T08:00:15;-3.70;99.90
20845;DHT22;10583;49.084;8.646;2024-01-10T08:02:41;-3.70;99.90
20845;DHT22;10583;49.084;8.646;2024-01-10T08:05:08;-3.60;99.90
20845;DHT22;10583;49.084;8.646;2024-01-10T08:07:35;-3.50;99.90
20845;DHT22;10583;49.084;8.646;2024-01-10T08:10:05;-3.50;99.90
20845;DHT22;10583;49.084;8.646;2024-01-10T08:12:33;-3.40;99.90
20845;DHT22;10583;49.084;8.646;2024-01-10T08:15:00;-3.40;99.90
20845;DHT22;10583;49.084;8.646;2024-01-10T08:17:27;-3.30;99.90
20845;DHT22;10583;49.084;8.646;2024-01-10T08:19:53;-3.30;99.90
20845;DHT22;10583;49.084;8.646;2024-01-10T08:22:20;-3.30;99.90
20845;DHT22;10583;49.084;8.646;2024-01-10T08:24:48;-3.30;99.90
20845;DHT22;10583;49.084;8.646;2024-01-10T08:27:16;-3.30;99.90
20845;DHT22;10583;49.084;8.646;2024-01-10T08:29:43;-3.20;99.90
20845;DHT22;10583;49.084;8.646;2024-01-10T08:32:10;-3.20;99.90
20845;DHT22;10583;49.084;8.646;2024-01-10T08:34:37;-3.20;99.90
20845;DHT22;10583;49.084;8.646;2024-01-10T08:37:03;-3.20;99.90
20845;DHT22;10583;49.084;8.646;2024-01-10T08:39:30;-3.10;99.90
20845;DHT22;10583;49.084;8.646;2024-01-10T08:41:57;-3.00;99.90
20845;DHT22;10583;49.084;8.646;2024-01-10T08:44:25;-3.00;99.90
20845;DHT22;10583;49.084;8.646;2024-01-10T08:46:52;-2.90;99.90
20845;DHT22;10583;49.084;8.646;2024-01-10T08:49:19;-2.70;99.90
20845;DHT22;10583;49.084;8.646;2024-01-10T08:51:46;-2.50;99.90
20845;DHT22;10583;49.084;8.646;2024-01-10T08:54:12;-2.20;99.90
20845;DHT22;10583;49.084;8.646;2024-01-10T08:56:42;-1.90;99.90
20845;DHT22;10583;49.084;8.646;2024-01-10T08:59:10;-1.70;99.90
20845;DHT22;10583;49.084;8.646;2024-01-10T09:01:39;-1.60;99.90
20845;DHT22;10583;49.084;8.646;2024-01-10T09:04:05;-1.60;99.90
20845;DHT22;10583;49.084;8.646;2024-01-10T09:06:33;-1.50;99.90
20845;DHT22;10583;49.084;8.646;2024-01-10T09:08:58;-1.50;99.90
20845;DHT22;10583;49.084;8.646;2024-01-10T09:11:25;-1.40;99.90
20845;DHT22;10583;49.084;8.646;2024-01-10T09:13:52;-1.50;99.90
20845;DHT22;10583;49.084;8.646;2024-01-10T09:16:18;-1.60;99.90
20845;DHT22;10583;49.084;8.646;2024-01-10T09:18:46;-1.60;99.90
20845;DHT22;10583;49.084;8.646;2024-01-10T09:21:14;-1.50;99.90
20845;DHT22;10583;49.084;8.646;2024-01-10T09:23:41;-1.30;99.90
20845;DHT22;10583;49.084;8.646;2024-01-10T09:26:07;-1.30;99.90
20845;DHT22;10583;49.084;8.646;2024-01-10T09:28:35;-1.40;99.90
20845;DHT22;10583;49.084;8.646;2024-01-10T09:31:01;-1.30;99.90
20845;DHT22;10583;49.084;8.646;2024-01-10T09:33:28;-1.30;99.90
20845;DHT22;10583;49.084;8.646;2024-01-10T09:35:56;-1.30;99.90
20845;DHT22;10583;49.084;8.646;2024-01-10T09:38:23;-1.20;99.90
20845;DHT22;10583;49.084;8.646;2024-01-10T09:40:49;-1.10;99.90
20845;DHT22;10583;49.084;8.646;2024-01-10T09:43:16;-1.00;99.90
20845;DHT22;10583;49.084;8.646;2024-01-10T09:45:46;-0.80;99.90
20845;DHT22;10583;49.084;8.646;2024-01-10T09:48:14;-0.80;99.90
20845;DHT22;10583;49.084;8.646;2024-01-10T09:50:42;-0.90;99.90
20845;DHT22;10583;49.084;8.646;2024-01-10T09:53:16;-0.80;99.90
20845;DHT22;10583;49.084;8.646;2024-01-10T09:55:47;-0.70;99.90
20845;DHT22;10583;49.084;8.646;2024-01-10T09:58:14;-0.60;99.90
20845;DHT22;10583;49.084;8.646;2024-01-10T10:00:41;-0.40;99.90
20845;DHT22;10583;49.084;8.646;2024-01-10T10:03:08;-0.30;99.90
20845;DHT22;10583;49.084;8.646;2024-01-10T10:05:36;-0.40;99.90
20845;DHT22;10583;49.084;8.646;2024-01-10T10:08:06;-0.40;99.90
20845;DHT22;10583;49.084;8.646;2024-01-10T10:10:36;-0.30;99.90
20845;DHT22;10583;49.084;8.646;2024-01-10T10:13:09;-0.20;99.90
20845;DHT22;10583;49.084;8.646;2024-01-10T10:15:37;-0.20;99.90
20845;DHT22;10583;49.084;8.646;2024-01-10T10:18:04;-0.20;99.90
20845;DHT22;10583;49.084;8.646;2024-01-10T10:20:31;-0.20;99.90
20845;DHT22;10583;49.084;8.646;2024-01-10T10:23:02;-0.10;99.90
20845;DHT22;10583;49.084;8.646;2024-01-10T10:25:30;-0.10;99.90
20845;DHT22;10583;49.084;8.646;2024-01-10T10:28:00;-0.10;99.90
20845;DHT22;10583;49.084;8.646;2024-01-10T10:30:28;-0.10;99.90
20845;DHT22;10583;49.084;8.646;2024-01-10T10:32:55;-0.10;99.90
20845;DHT22;10583;49.084;8.646;2024-01-10T10:35:22;-0.20;99.90
20845;DHT22;10583;49.084;8.646;2024-01-10T10:37:50;-0.20;99.90
20845;DHT22;10583;49.084;8.646;2024-01-10T10:40:17;-0.10;99.90
20845;DHT22;10583;49.084;8.646;2024-01-10T10:42:45;0.10;99.90
20845;DHT22;10583;49.084;8.646;2024-01-10T10:45:15;0.20;99.90
20845;DHT22;10583;49.084;8.646;2024-01-10T10:47:44;0.30;99.90
20845;DHT22;10583;49.084;8.646;2024-01-10T10:50:13;0.30;99.90
20845;DHT22;10583;49.084;8.646;2024-01-10T10:52:42;0.30;99.90
20845;DHT22;10583;49.084;8.646;2024-01-10T10:55:14;0.20;99.90
20845;DHT22;10583;49.084;8.646;2024-01-10T10:57:42;0.40;99.90
20845;DHT22;10583;49.084;8.646;2024-01-10T11:00:10;0.50;99.90
20845;DHT22;10583;49.084;8.646;2024-01-10T11:02:42;0.60;99.90
20845;DHT22;10583;49.084;8.646;2024-01-10T11:05:09;0.80;99.90
20845;DHT22;10583;49.084;8.646;2024-01-10T11:07:37;1.00;99.90
20845;DHT22;10583;49.084;8.646;2024-01-10T11:10:05;1.10;99.90
20845;DHT22;10583;49.084;8.646;2024-01-10T11:12:50;1.30;99.90
20845;DHT22;10583;49.084;8.646;2024-01-10T11:15:30;1.40;99.90
20845;DHT22;10583;49.084;8.646;2024-01-10T11:18:12;1.40;99.90
20845;DHT22;10583;49.084;8.646;2024-01-10T11:20:53;1.60;99.90
20845;DHT22;10583;49.084;8.646;2024-01-10T11:23:39;1.80;99.90
20845;DHT22;10583;49.084;8.646;2024-01-10T11:26:07;2.00;99.90
20845;DHT22;10583;49.084;8.646;2024-01-10T11:28:36;2.10;99.90
20845;DHT22;10583;49.084;8.646;2024-01-10T11:31:06;2.30;99.90
20845;DHT22;10583;49.084;8.646;2024-01-10T11:33:36;2.30;99.90
20845;DHT22;10583;49.084;8.646;2024-01-10T11:36:09;2.40;99.90
20845;DHT22;10583;49.084;8.646;2024-01-10T11:38:39;2.60;99.90
20845;DHT22;10583;49.084;8.646;2024-01-10T11:41:06;2.70;99.90
20845;DHT22;10583;49.084;8.646;2024-01-10T11:43:34;2.70;99.90
20845;DHT22;10583;49.084;8.646;2024-01-10T11:46:01;2.70;99.90
20845;DHT22;10583;49.084;8.646;2024-01-10T11:48:31;2.40;99.90
20845;DHT22;10583;49.084;8.646;2024-01-10T11:51:00;2.40;99.90
20845;DHT22;10583;49.084;8.646;2024-01-10T11:53:43;2.50;99.90
20845;DHT22;10583;49.084;8.646;2024-01-10T11:56:12;2.50;99.90
20845;DHT22;10583;49.084;8.646;2024-01-10T11:59:01;2.50;99.90
20845;DHT22;10583;49.084;8.646;2024-01-10T12:01:29;2.60;99.90
20845;DHT22;10583;49.084;8.646;2024-01-10T12:03:57;2.70;99.90
20845;DHT22;10583;49.084;8.646;2024-01-10T12:06:26;3.00;99.90
20845;DHT22;10583;49.084;8.646;2024-01-10T12:08:53;2.90;99.70
20845;DHT22;10583;49.084;8.646;2024-01-10T12:11:20;2.90;99.90
20845;DHT22;10583;49.084;8.646;2024-01-10T12:13:47;3.00;99.90
20845;DHT22;10583;49.084;8.646;2024-01-10T12:16:15;3.00;99.60
20845;DHT22;10583;49.084;8.646;2024-01-10T12:18:42;2.90;99.90
20845;DHT22;10583;49.084;8.646;2024-01-10T12:21:08;2.80;99.90
20845;DHT22;10583;49.084;8.646;2024-01-10T12:23:37;2.90;99.90
20845;DHT22;10583;49.084;8.646;2024-01-10T12:26:05;2.90;99.90
20845;DHT22;10583;49.084;8.646;2024-01-10T12:28:33;2.90;99.70
20845;DHT22;10583;49.084;8.646;2024-01-10T12:31:00;2.80;99.90
20845;DHT22;10583;49.084;8.646;2024-01-10T12:33:27;2.90;99.90
20845;DHT22;10583;49.084;8.646;2024-01-10T12:36:07;2.80;99.90
20845;DHT22;10583;49.084;8.646;2024-01-10T12:38:34;2.80;99.90
20845;DHT22;10583;49.084;8.646;2024-01-10T12:41:03;3.00;99.90
20845;DHT22;10583;49.084;8.646;2024-01-10T12:43:30;3.00;99.90
20845;DHT22;10583;49.084;8.646;2024-01-10T12:46:03;2.90;99.90
20845;DHT22;10583;49.084;8.646;2024-01-10T12:48:30;3.10;99.90
20845;DHT22;10583;49.084;8.646;2024-01-10T12:50:57;3.00;99.90
20845;DHT22;10583;49.084;8.646;2024-01-10T12:53:26;2.80;99.90
20845;DHT22;10583;49.084;8.646;2024-01-10T12:55:53;2.80;99.90
20845;DHT22;10583;49.084;8.646;2024-01-10T12:58:21;2.80;99.90
20845;DHT22;10583;49.084;8.646;2024-01-10T13:00:48;2.90;99.90
20845;DHT22;10583;49.084;8.646;2024-01-10T13:03:15;2.70;99.90
20845;DHT22;10583;49.084;8.646;2024-01-10T13:05:42;2.80;99.90
20845;DHT22;10583;49.084;8.646;2024-01-10T13:08:09;2.80;99.90
20845;DHT22;10583;49.084;8.646;2024-01-10T13:10:37;2.70;99.90
20845;DHT22;10583;49.084;8.646;2024-01-10T13:13:03;2.60;99.90
20845;DHT22;10583;49.084;8.646;2024-01-10T13:15:31;2.60;99.90
20845;DHT22;10583;49.084;8.646;2024-01-10T13:17:58;2.60;99.90
20845;DHT22;10583;49.084;8.646;2024-01-10T13:20:25;2.70;99.90
20845;DHT22;10583;49.084;8.646;2024-01-10T13:22:53;2.70;99.90
20845;DHT22;10583;49.084;8.646;2024-01-10T13:25:19;2.80;99.90
20845;DHT22;10583;49.084;8.646;2024-01-10T13:27:48;2.90;99.90
20845;DHT22;10583;49.084;8.646;2024-01-10T13:30:16;2.90;99.90
20845;DHT22;10583;49.084;8.646;2024-01-10T13:32:44;2.90;99.90
20845;DHT22;10583;49.084;8.646;2024-01-10T13:35:12;2.80;99.90
20845;DHT22;10583;49.084;8.646;2024-01-10T13:37:39;2.80;99.90
20845;DHT22;10583;49.084;8.646;2024-01-10T13:40:07;2.60;99.90
20845;DHT22;10583;49.084;8.646;2024-01-10T13:42:34;2.50;99.90
20845;DHT22;10583;49.084;8.646;2024-01-10T13:45:02;2.50;99.90
20845;DHT22;10583;49.084;8.646;2024-01-10T13:47:30;2.40;99.90
20845;DHT22;10583;49.084;8.646;2024-01-10T13:49:59;2.40;99.90
20845;DHT22;10583;49.084;8.646;2024-01-10T13:52:26;2.40;99.90
20845;DHT22;10583;49.084;8.646;2024-01-10T13:54:53;2.30;99.90
20845;DHT22;10583;49.084;8.646;2024-01-10T13:57:21;2.30;99.90
20845;DHT22;10583;49.084;8.646;2024-01-10T13:59:48;2.40;99.90
20845;DHT22;10583;49.084;8.646;2024-01-10T14:02:14;2.60;99.90
20845;DHT22;10583;49.084;8.646;2024-01-10T14:04:41;2.60;99.90
20845;DHT22;10583;49.084;8.646;2024-01-10T14:07:09;2.50;99.90
20845;DHT22;10583;49.084;8.646;2024-01-10T14:09:36;2.30;99.90
20845;DHT22;10583;49.084;8.646;2024-01-10T14:12:03;2.20;99.90
20845;DHT22;10583;49.084;8.646;2024-01-10T14:14:30;2.10;99.90
20845;DHT22;10583;49.084;8.646;2024-01-10T14:16:57;2.00;99.90
20845;DHT22;10583;49.084;8.646;2024-01-10T14:19:24;1.80;99.90
20845;DHT22;10583;49.084;8.646;2024-01-10T14:21:51;1.80;99.90
20845;DHT22;10583;49.084;8.646;2024-01-10T14:24:21;1.80;99.90
20845;DHT22;10583;49.084;8.646;2024-01-10T14:26:48;1.70;99.90
20845;DHT22;10583;49.084;8.646;2024-01-10T14:29:14;1.60;99.90
20845;DHT22;10583;49.084;8.646;2024-01-10T14:31:41;1.50;99.90
20845;DHT22;10583;49.084;8.646;2024-01-10T14:34:08;1.30;99.90
20845;DHT22;10583;49.084;8.646;2024-01-10T14:36:34;1.20;99.90
20845;DHT22;10583;49.084;8.646;2024-01-10T14:39:03;1.20;99.90
20845;DHT22;10583;49.084;8.646;2024-01-10T14:41:31;1.10;99.90
20845;DHT22;10583;49.084;8.646;2024-01-10T14:43:59;1.00;99.90
20845;DHT22;10583;49.084;8.646;2024-01-10T14:46:26;0.90;99.90
20845;DHT22;10583;49.084;8.646;2024-01-10T14:48:53;0.80;99.90
20845;DHT22;10583;49.084;8.646;2024-01-10T14:51:20;0.80;99.90
20845;DHT22;10583;49.084;8.646;2024-01-10T14:53:47;0.80;99.90
20845;DHT22;10583;49.084;8.646;2024-01-10T14:56:13;0.80;99.90
20845;DHT22;10583;49.084;8.646;2024-01-10T14:58:41;0.80;99.90
20845;DHT22;10583;49.084;8.646;2024-01-10T15:01:08;0.80;99.90
20845;DHT22;10583;49.084;8.646;2024-01-10T15:03:35;0.70;99.90
20845;DHT22;10583;49.084;8.646;2024-01-10T15:06:03;0.70;99.90
20845;DHT22;10583;49.084;8.646;2024-01-10T15:08:31;0.60;99.90
20845;DHT22;10583;49.084;8.646;2024-01-10T15:10:59;0.60;99.90
20845;DHT22;10583;49.084;8.646;2024-01-10T15:13:26;0.50;99.90
20845;DHT22;10583;49.084;8.646;2024-01-10T15:15:53;0.50;99.90
20845;DHT22;10583;49.084;8.646;2024-01-10T15:18:20;0.50;99.90
20845;DHT22;10583;49.084;8.646;2024-01-10T15:20:47;0.40;99.90
20845;DHT22;10583;49.084;8.646;2024-01-10T15:23:14;0.40;99.90
20845;DHT22;10583;49.084;8.646;2024-01-10T15:25:41;0.40;99.90
20845;DHT22;10583;49.084;8.646;2024-01-10T15:28:07;0.30;99.90
20845;DHT22;10583;49.084;8.646;2024-01-10T15:30:34;0.20;99.90
20845;DHT22;10583;49.084;8.646;2024-01-10T15:33:02;0.20;99.90
20845;DHT22;10583;49.084;8.646;2024-01-10T15:35:29;0.20;99.90
20845;DHT22;10583;49.084;8.646;2024-01-10T15:37:56;0.10;99.90